sensor_id;sensor_type;location;lat;lon;timestamp;temperature;humidity
75685;HTU21D;64298;46.050;38.164;2022-11-11T00:02:04;8.12;80.83
75685;HTU21D;64298;46.050;38.164;2022-11-11T00:04:48;8.08;80.91
75685;HTU21D;64298;46.050;38.164;2022-11-11T00:07:33;8.07;80.97
75685;HTU21D;64298;46.050;38.164;2022-11-11T00:10:17;8.03;81.07
75685;HTU21D;64298;46.050;38.164;2022-11-11T00:13:03;8.02;81.11
75685;HTU21D;64298;46.050;38.164;2022-11-11T00:15:48;8.00;81.17
75685;HTU21D;64298;46.050;38.164;2022-11-11T00:18:33;7.99;81.16
75685;HTU21D;64298;46.050;38.164;2022-11-11T00:21:37;7.97;81.23
75685;HTU21D;64298;46.050;38.164;2022-11-11T00:24:27;7.93;81.30
75685;HTU21D;64298;46.050;38.164;2022-11-11T00:27:30;7.92;81.30
75685;HTU21D;64298;46.050;38.164;2022-11-11T00:30:15;7.90;81.38
75685;HTU21D;64298;46.050;38.164;2022-11-11T00:32:59;7.88;81.42
75685;HTU21D;64298;46.050;38.164;2022-11-11T00:35:44;7.89;81.37
75685;HTU21D;64298;46.050;38.164;2022-11-11T00:38:37;7.87;81.44
75685;HTU21D;64298;46.050;38.164;2022-11-11T00:41:32;7.85;81.45
75685;HTU21D;64298;46.050;38.164;2022-11-11T00:44:17;7.85;81.51
75685;HTU21D;64298;46.050;38.164;2022-11-11T00:47:01;7.81;81.53
75685;HTU21D;64298;46.050;38.164;2022-11-11T00:50:28;7.78;81.59
75685;HTU21D;64298;46.050;38.164;2022-11-11T00:53:31;7.76;81.65
75685;HTU21D;64298;46.050;38.164;2022-11-11T00:56:16;7.74;81.72
75685;HTU21D;64298;46.050;38.164;2022-11-11T00:59:01;7.73;81.76
75685;HTU21D;64298;46.050;38.164;2022-11-11T01:01:45;7.73;81.84
75685;HTU21D;64298;46.050;38.164;2022-11-11T01:04:30;7.73;81.81
75685;HTU21D;64298;46.050;38.164;2022-11-11T01:07:14;7.70;81.88
75685;HTU21D;64298;46.050;38.164;2022-11-11T01:09:59;7.70;81.88
75685;HTU21D;64298;46.050;38.164;2022-11-11T01:12:43;7.68;82.01
75685;HTU21D;64298;46.050;38.164;2022-11-11T01:15:28;7.65;82.02
75685;HTU21D;64298;46.050;38.164;2022-11-11T01:18:18;7.63;82.02
75685;HTU21D;64298;46.050;38.164;2022-11-11T01:21:10;7.63;82.12
75685;HTU21D;64298;46.050;38.164;2022-11-11T01:23:54;7.62;82.10
75685;HTU21D;64298;46.050;38.164;2022-11-11T01:26:39;7.59;82.17
75685;HTU21D;64298;46.050;38.164;2022-11-11T01:29:23;7.58;82.16
75685;HTU21D;64298;46.050;38.164;2022-11-11T01:32:08;7.57;82.26
75685;HTU21D;64298;46.050;38.164;2022-11-11T01:34:52;7.55;82.29
75685;HTU21D;64298;46.050;38.164;2022-11-11T01:37:37;7.54;82.31
75685;HTU21D;64298;46.050;38.164;2022-11-11T01:40:21;7.52;82.32
75685;HTU21D;64298;46.050;38.164;2022-11-11T01:46:00;7.50;82.41
75685;HTU21D;64298;46.050;38.164;2022-11-11T01:48:53;7.50;82.42
75685;HTU21D;64298;46.050;38.164;2022-11-11T01:55:18;7.45;82.58
75685;HTU21D;64298;46.050;38.164;2022-11-11T01:58:06;7.43;82.54
75685;HTU21D;64298;46.050;38.164;2022-11-11T02:00:52;7.41;82.62
75685;HTU21D;64298;46.050;38.164;2022-11-11T02:03:39;7.39;82.70
75685;HTU21D;64298;46.050;38.164;2022-11-11T02:06:25;7.37;82.67
75685;HTU21D;64298;46.050;38.164;2022-11-11T02:09:10;7.37;82.69
75685;HTU21D;64298;46.050;38.164;2022-11-11T02:11:57;7.35;82.71
75685;HTU21D;64298;46.050;38.164;2022-11-11T02:15:01;7.33;82.74
75685;HTU21D;64298;46.050;38.164;2022-11-11T02:17:47;7.30;82.84
75685;HTU21D;64298;46.050;38.164;2022-11-11T02:20:38;7.29;82.85
75685;HTU21D;64298;46.050;38.164;2022-11-11T02:26:43;7.25;82.93
75685;HTU21D;64298;46.050;38.164;2022-11-11T02:29:29;7.23;82.98
75685;HTU21D;64298;46.050;38.164;2022-11-11T02:32:13;7.22;83.01
75685;HTU21D;64298;46.050;38.164;2022-11-11T02:34:58;7.18;83.11
75685;HTU21D;64298;46.050;38.164;2022-11-11T02:37:45;7.17;83.13
75685;HTU21D;64298;46.050;38.164;2022-11-11T02:40:35;7.15;83.23
75685;HTU21D;64298;46.050;38.164;2022-11-11T02:43:20;7.13;83.26
75685;HTU21D;64298;46.050;38.164;2022-11-11T02:46:06;7.11;83.35
75685;HTU21D;64298;46.050;38.164;2022-11-11T02:48:50;7.10;83.38
75685;HTU21D;64298;46.050;38.164;2022-11-11T02:51:35;7.10;83.39
75685;HTU21D;64298;46.050;38.164;2022-11-11T02:54:19;7.10;83.32
75685;HTU21D;64298;46.050;38.164;2022-11-11T02:57:04;7.09;83.34
75685;HTU21D;64298;46.050;38.164;2022-11-11T02:59:52;7.10;83.38
75685;HTU21D;64298;46.050;38.164;2022-11-11T03:02:36;7.05;83.52
75685;HTU21D;64298;46.050;38.164;2022-11-11T03:05:21;7.04;83.50
75685;HTU21D;64298;46.050;38.164;2022-11-11T03:08:06;7.05;83.60
75685;HTU21D;64298;46.050;38.164;2022-11-11T03:10:50;7.05;83.57
75685;HTU21D;64298;46.050;38.164;2022-11-11T03:13:34;7.04;83.61
75685;HTU21D;64298;46.050;38.164;2022-11-11T03:16:19;7.04;83.68
75685;HTU21D;64298;46.050;38.164;2022-11-11T03:19:22;7.02;83.68
75685;HTU21D;64298;46.050;38.164;2022-11-11T03:22:06;7.04;83.74
75685;HTU21D;64298;46.050;38.164;2022-11-11T03:24:51;7.05;83.79
75685;HTU21D;64298;46.050;38.164;2022-11-11T03:27:54;7.05;83.72
75685;HTU21D;64298;46.050;38.164;2022-11-11T03:30:41;7.07;83.88
75685;HTU21D;64298;46.050;38.164;2022-11-11T03:33:26;7.09;83.85
75685;HTU21D;64298;46.050;38.164;2022-11-11T03:36:11;7.10;83.87
75685;HTU21D;64298;46.050;38.164;2022-11-11T03:38:55;7.11;83.87
75685;HTU21D;64298;46.050;38.164;2022-11-11T03:41:39;7.15;83.86
75685;HTU21D;64298;46.050;38.164;2022-11-11T03:44:24;7.18;83.84
75685;HTU21D;64298;46.050;38.164;2022-11-11T03:47:11;7.22;83.83
75685;HTU21D;64298;46.050;38.164;2022-11-11T03:49:55;7.25;83.78
75685;HTU21D;64298;46.050;38.164;2022-11-11T03:52:41;7.28;83.82
75685;HTU21D;64298;46.050;38.164;2022-11-11T03:55:26;7.31;83.83
75685;HTU21D;64298;46.050;38.164;2022-11-11T03:58:11;7.33;83.89
75685;HTU21D;64298;46.050;38.164;2022-11-11T04:00:56;7.37;83.90
75685;HTU21D;64298;46.050;38.164;2022-11-11T04:03:41;7.39;83.91
75685;HTU21D;64298;46.050;38.164;2022-11-11T04:06:43;7.39;83.94
75685;HTU21D;64298;46.050;38.164;2022-11-11T04:09:46;7.39;83.94
75685;HTU21D;64298;46.050;38.164;2022-11-11T04:12:50;7.39;84.01
75685;HTU21D;64298;46.050;38.164;2022-11-11T04:15:53;7.38;83.97
75685;HTU21D;64298;46.050;38.164;2022-11-11T04:18:50;7.37;84.03
75685;HTU21D;64298;46.050;38.164;2022-11-11T04:21:53;7.37;84.04
75685;HTU21D;64298;46.050;38.164;2022-11-11T04:24:37;7.37;84.00
75685;HTU21D;64298;46.050;38.164;2022-11-11T04:27:40;7.39;83.99
75685;HTU21D;64298;46.050;38.164;2022-11-11T04:30:25;7.38;84.00
75685;HTU21D;64298;46.050;38.164;2022-11-11T04:33:09;7.40;83.98
75685;HTU21D;64298;46.050;38.164;2022-11-11T04:35:53;7.41;83.97
75685;HTU21D;64298;46.050;38.164;2022-11-11T04:38:38;7.40;84.00
75685;HTU21D;64298;46.050;38.164;2022-11-11T04:41:41;7.39;83.98
75685;HTU21D;64298;46.050;38.164;2022-11-11T04:44:25;7.39;84.03
75685;HTU21D;64298;46.050;38.164;2022-11-11T04:47:29;7.39;84.08
75685;HTU21D;64298;46.050;38.164;2022-11-11T04:50:13;7.41;84.10
75685;HTU21D;64298;46.050;38.164;2022-11-11T04:52:58;7.42;84.10
75685;HTU21D;64298;46.050;38.164;2022-11-11T04:55:43;7.45;84.10
75685;HTU21D;64298;46.050;38.164;2022-11-11T04:58:47;7.47;84.10
75685;HTU21D;64298;46.050;38.164;2022-11-11T05:01:51;7.52;84.14
75685;HTU21D;64298;46.050;38.164;2022-11-11T05:04:54;7.55;84.23
75685;HTU21D;64298;46.050;38.164;2022-11-11T05:07:38;7.60;84.21
75685;HTU21D;64298;46.050;38.164;2022-11-11T05:10:41;7.63;84.17
75685;HTU21D;64298;46.050;38.164;2022-11-11T05:13:26;7.68;84.15
75685;HTU21D;64298;46.050;38.164;2022-11-11T05:16:32;7.70;84.10
75685;HTU21D;64298;46.050;38.164;2022-11-11T05:19:36;7.76;84.07
75685;HTU21D;64298;46.050;38.164;2022-11-11T05:22:41;7.78;84.05
75685;HTU21D;64298;46.050;38.164;2022-11-11T05:25:26;7.82;84.10
75685;HTU21D;64298;46.050;38.164;2022-11-11T05:28:13;7.85;84.10
75685;HTU21D;64298;46.050;38.164;2022-11-11T05:30:58;7.87;84.07
75685;HTU21D;64298;46.050;38.164;2022-11-11T05:33:42;7.91;84.10
75685;HTU21D;64298;46.050;38.164;2022-11-11T05:36:27;7.96;84.10
75685;HTU21D;64298;46.050;38.164;2022-11-11T05:39:11;7.99;84.08
75685;HTU21D;64298;46.050;38.164;2022-11-11T05:41:56;8.02;84.09
75685;HTU21D;64298;46.050;38.164;2022-11-11T05:44:40;8.03;84.13
75685;HTU21D;64298;46.050;38.164;2022-11-11T05:47:25;8.03;84.19
75685;HTU21D;64298;46.050;38.164;2022-11-11T05:50:09;8.01;84.28
75685;HTU21D;64298;46.050;38.164;2022-11-11T05:52:54;8.01;84.29
75685;HTU21D;64298;46.050;38.164;2022-11-11T05:55:39;8.01;84.29
75685;HTU21D;64298;46.050;38.164;2022-11-11T05:58:24;8.02;84.28
75685;HTU21D;64298;46.050;38.164;2022-11-11T06:01:08;8.02;84.23
75685;HTU21D;64298;46.050;38.164;2022-11-11T06:03:52;7.99;84.32
75685;HTU21D;64298;46.050;38.164;2022-11-11T06:06:37;7.99;84.38
75685;HTU21D;64298;46.050;38.164;2022-11-11T06:09:22;8.02;84.41
75685;HTU21D;64298;46.050;38.164;2022-11-11T06:12:06;8.05;84.37
75685;HTU21D;64298;46.050;38.164;2022-11-11T06:14:52;8.06;84.32
75685;HTU21D;64298;46.050;38.164;2022-11-11T06:17:36;8.05;84.33
75685;HTU21D;64298;46.050;38.164;2022-11-11T06:20:21;8.05;84.35
75685;HTU21D;64298;46.050;38.164;2022-11-11T06:23:06;8.08;84.34
75685;HTU21D;64298;46.050;38.164;2022-11-11T06:25:51;8.08;84.35
75685;HTU21D;64298;46.050;38.164;2022-11-11T06:28:55;8.09;84.32
75685;HTU21D;64298;46.050;38.164;2022-11-11T06:31:39;8.08;84.32
75685;HTU21D;64298;46.050;38.164;2022-11-11T06:34:24;8.11;84.29
75685;HTU21D;64298;46.050;38.164;2022-11-11T06:37:08;8.13;84.23
75685;HTU21D;64298;46.050;38.164;2022-11-11T06:39:52;8.15;84.19
75685;HTU21D;64298;46.050;38.164;2022-11-11T06:42:37;8.16;84.13
75685;HTU21D;64298;46.050;38.164;2022-11-11T06:45:22;8.21;84.07
75685;HTU21D;64298;46.050;38.164;2022-11-11T06:48:07;8.27;83.97
75685;HTU21D;64298;46.050;38.164;2022-11-11T06:50:53;8.32;83.90
75685;HTU21D;64298;46.050;38.164;2022-11-11T06:53:37;8.35;83.80
75685;HTU21D;64298;46.050;38.164;2022-11-11T06:56:22;8.39;83.72
75685;HTU21D;64298;46.050;38.164;2022-11-11T06:59:06;8.46;83.65
75685;HTU21D;64298;46.050;38.164;2022-11-11T07:01:51;8.52;83.53
75685;HTU21D;64298;46.050;38.164;2022-11-11T07:04:35;8.62;83.40
75685;HTU21D;64298;46.050;38.164;2022-11-11T07:07:20;8.73;83.26
75685;HTU21D;64298;46.050;38.164;2022-11-11T07:10:05;8.82;83.04
75685;HTU21D;64298;46.050;38.164;2022-11-11T07:12:50;8.93;82.85
75685;HTU21D;64298;46.050;38.164;2022-11-11T07:15:35;9.02;82.68
75685;HTU21D;64298;46.050;38.164;2022-11-11T07:18:20;9.14;82.54
75685;HTU21D;64298;46.050;38.164;2022-11-11T07:21:04;9.24;82.35
75685;HTU21D;64298;46.050;38.164;2022-11-11T07:23:49;9.34;82.15
75685;HTU21D;64298;46.050;38.164;2022-11-11T07:26:33;9.42;81.94
75685;HTU21D;64298;46.050;38.164;2022-11-11T07:29:17;9.46;81.84
75685;HTU21D;64298;46.050;38.164;2022-11-11T07:32:03;9.47;81.78
75685;HTU21D;64298;46.050;38.164;2022-11-11T07:34:47;9.48;81.64
75685;HTU21D;64298;46.050;38.164;2022-11-11T07:37:35;9.45;81.62
75685;HTU21D;64298;46.050;38.164;2022-11-11T07:40:20;9.47;81.68
75685;HTU21D;64298;46.050;38.164;2022-11-11T07:43:04;9.49;81.64
75685;HTU21D;64298;46.050;38.164;2022-11-11T07:45:50;9.55;81.59
75685;HTU21D;64298;46.050;38.164;2022-11-11T07:48:34;9.64;81.43
75685;HTU21D;64298;46.050;38.164;2022-11-11T07:51:19;9.71;81.25
75685;HTU21D;64298;46.050;38.164;2022-11-11T07:54:03;9.76;81.10
75685;HTU21D;64298;46.050;38.164;2022-11-11T07:56:48;9.84;80.99
75685;HTU21D;64298;46.050;38.164;2022-11-11T07:59:32;10.00;80.72
75685;HTU21D;64298;46.050;38.164;2022-11-11T08:02:17;10.14;80.42
75685;HTU21D;64298;46.050;38.164;2022-11-11T08:05:01;10.25;80.07
75685;HTU21D;64298;46.050;38.164;2022-11-11T08:07:46;10.33;79.78
75685;HTU21D;64298;46.050;38.164;2022-11-11T08:10:32;10.33;79.72
75685;HTU21D;64298;46.050;38.164;2022-11-11T08:13:17;10.36;79.81
75685;HTU21D;64298;46.050;38.164;2022-11-11T08:16:20;10.37;79.50
75685;HTU21D;64298;46.050;38.164;2022-11-11T08:19:04;10.35;79.59
75685;HTU21D;64298;46.050;38.164;2022-11-11T08:21:50;10.38;79.62
75685;HTU21D;64298;46.050;38.164;2022-11-11T08:24:35;10.44;79.37
75685;HTU21D;64298;46.050;38.164;2022-11-11T08:27:19;10.48;79.24
75685;HTU21D;64298;46.050;38.164;2022-11-11T08:30:05;10.56;79.08
75685;HTU21D;64298;46.050;38.164;2022-11-11T08:33:02;10.64;78.78
75685;HTU21D;64298;46.050;38.164;2022-11-11T08:35:47;10.71;78.65
75685;HTU21D;64298;46.050;38.164;2022-11-11T08:38:32;10.80;78.53
75685;HTU21D;64298;46.050;38.164;2022-11-11T08:41:17;10.87;78.29
75685;HTU21D;64298;46.050;38.164;2022-11-11T08:44:01;10.92;78.27
75685;HTU21D;64298;46.050;38.164;2022-11-11T08:46:48;10.96;77.89
75685;HTU21D;64298;46.050;38.164;2022-11-11T08:49:32;10.94;77.99
75685;HTU21D;64298;46.050;38.164;2022-11-11T08:52:17;10.95;77.80
75685;HTU21D;64298;46.050;38.164;2022-11-11T08:55:01;10.93;77.75
75685;HTU21D;64298;46.050;38.164;2022-11-11T08:57:46;10.94;77.93
75685;HTU21D;64298;46.050;38.164;2022-11-11T09:00:31;10.93;77.79
75685;HTU21D;64298;46.050;38.164;2022-11-11T09:03:16;10.97;77.79
75685;HTU21D;64298;46.050;38.164;2022-11-11T09:06:00;10.98;77.66
75685;HTU21D;64298;46.050;38.164;2022-11-11T09:08:44;10.97;77.60
75685;HTU21D;64298;46.050;38.164;2022-11-11T09:11:29;10.96;77.53
75685;HTU21D;64298;46.050;38.164;2022-11-11T09:14:19;10.95;77.69
75685;HTU21D;64298;46.050;38.164;2022-11-11T09:17:05;10.93;77.59
75685;HTU21D;64298;46.050;38.164;2022-11-11T09:19:50;10.95;77.61
75685;HTU21D;64298;46.050;38.164;2022-11-11T09:22:41;10.99;77.44
75685;HTU21D;64298;46.050;38.164;2022-11-11T09:25:25;10.98;77.10
75685;HTU21D;64298;46.050;38.164;2022-11-11T09:28:10;10.98;77.05
75685;HTU21D;64298;46.050;38.164;2022-11-11T09:30:55;10.98;76.91
75685;HTU21D;64298;46.050;38.164;2022-11-11T09:33:39;10.98;76.83
75685;HTU21D;64298;46.050;38.164;2022-11-11T09:36:24;10.98;76.63
75685;HTU21D;64298;46.050;38.164;2022-11-11T09:39:08;10.97;76.34
75685;HTU21D;64298;46.050;38.164;2022-11-11T09:42:13;10.95;76.15
75685;HTU21D;64298;46.050;38.164;2022-11-11T09:51:24;10.97;75.52
75685;HTU21D;64298;46.050;38.164;2022-11-11T09:54:20;10.99;75.59
75685;HTU21D;64298;46.050;38.164;2022-11-11T09:57:46;10.98;75.15
75685;HTU21D;64298;46.050;38.164;2022-11-11T10:00:30;10.98;75.18
75685;HTU21D;64298;46.050;38.164;2022-11-11T10:03:19;11.00;75.22
75685;HTU21D;64298;46.050;38.164;2022-11-11T10:06:26;11.04;75.15
75685;HTU21D;64298;46.050;38.164;2022-11-11T10:09:42;11.07;74.83
75685;HTU21D;64298;46.050;38.164;2022-11-11T10:12:36;11.04;74.42
75685;HTU21D;64298;46.050;38.164;2022-11-11T10:15:27;11.07;74.46
75685;HTU21D;64298;46.050;38.164;2022-11-11T10:21:23;11.08;73.67
75685;HTU21D;64298;46.050;38.164;2022-11-11T10:24:15;11.07;73.69
75685;HTU21D;64298;46.050;38.164;2022-11-11T10:27:03;11.08;73.91
75685;HTU21D;64298;46.050;38.164;2022-11-11T10:29:50;11.05;73.31
75685;HTU21D;64298;46.050;38.164;2022-11-11T10:32:35;11.05;73.48
75685;HTU21D;64298;46.050;38.164;2022-11-11T10:35:28;11.05;73.35
75685;HTU21D;64298;46.050;38.164;2022-11-11T10:38:34;11.04;73.28
75685;HTU21D;64298;46.050;38.164;2022-11-11T10:41:58;11.04;73.15
75685;HTU21D;64298;46.050;38.164;2022-11-11T10:44:43;11.02;73.09
75685;HTU21D;64298;46.050;38.164;2022-11-11T10:50:56;11.07;72.81
75685;HTU21D;64298;46.050;38.164;2022-11-11T10:53:53;11.01;72.20
75685;HTU21D;64298;46.050;38.164;2022-11-11T10:56:53;10.99;72.48
75685;HTU21D;64298;46.050;38.164;2022-11-11T10:59:48;11.01;72.77
75685;HTU21D;64298;46.050;38.164;2022-11-11T11:02:49;11.03;72.61
75685;HTU21D;64298;46.050;38.164;2022-11-11T11:08:58;11.09;72.42
75685;HTU21D;64298;46.050;38.164;2022-11-11T11:15:12;11.00;71.94
75685;HTU21D;64298;46.050;38.164;2022-11-11T11:17:59;10.94;71.66
75685;HTU21D;64298;46.050;38.164;2022-11-11T11:20:59;10.93;71.87
75685;HTU21D;64298;46.050;38.164;2022-11-11T11:23:45;10.93;72.00
75685;HTU21D;64298;46.050;38.164;2022-11-11T11:26:45;10.90;71.98
75685;HTU21D;64298;46.050;38.164;2022-11-11T11:29:39;10.92;72.00
75685;HTU21D;64298;46.050;38.164;2022-11-11T11:32:30;10.95;72.13
75685;HTU21D;64298;46.050;38.164;2022-11-11T11:35:43;11.08;71.72
75685;HTU21D;64298;46.050;38.164;2022-11-11T11:38:46;11.25;71.59
75685;HTU21D;64298;46.050;38.164;2022-11-11T11:41:44;11.40;71.01
75685;HTU21D;64298;46.050;38.164;2022-11-11T11:44:37;11.47;70.94
75685;HTU21D;64298;46.050;38.164;2022-11-11T11:53:34;11.71;70.03
75685;HTU21D;64298;46.050;38.164;2022-11-11T11:56:38;11.66;69.58
75685;HTU21D;64298;46.050;38.164;2022-11-11T11:59:38;11.59;69.42
75685;HTU21D;64298;46.050;38.164;2022-11-11T12:05:44;11.36;69.93
75685;HTU21D;64298;46.050;38.164;2022-11-11T12:08:34;11.31;70.00
75685;HTU21D;64298;46.050;38.164;2022-11-11T12:20:40;11.17;70.31
75685;HTU21D;64298;46.050;38.164;2022-11-11T12:26:27;11.12;70.32
75685;HTU21D;64298;46.050;38.164;2022-11-11T12:29:47;11.09;70.42
75685;HTU21D;64298;46.050;38.164;2022-11-11T12:32:33;11.09;70.28
75685;HTU21D;64298;46.050;38.164;2022-11-11T12:35:32;11.03;70.15
75685;HTU21D;64298;46.050;38.164;2022-11-11T12:44:09;10.93;70.33
75685;HTU21D;64298;46.050;38.164;2022-11-11T12:47:23;10.90;70.30
75685;HTU21D;64298;46.050;38.164;2022-11-11T12:50:34;10.89;70.40
75685;HTU21D;64298;46.050;38.164;2022-11-11T12:56:38;10.83;70.41
75685;HTU21D;64298;46.050;38.164;2022-11-11T13:02:57;10.81;70.71
75685;HTU21D;64298;46.050;38.164;2022-11-11T13:14:55;10.66;70.64
75685;HTU21D;64298;46.050;38.164;2022-11-11T13:17:42;10.64;70.68
75685;HTU21D;64298;46.050;38.164;2022-11-11T13:20:43;10.63;70.84
75685;HTU21D;64298;46.050;38.164;2022-11-11T13:23:29;10.64;70.82
75685;HTU21D;64298;46.050;38.164;2022-11-11T13:26:27;10.64;70.78
75685;HTU21D;64298;46.050;38.164;2022-11-11T13:29:31;10.62;70.87
75685;HTU21D;64298;46.050;38.164;2022-11-11T13:32:23;10.59;70.79
75685;HTU21D;64298;46.050;38.164;2022-11-11T13:35:25;10.56;70.97
75685;HTU21D;64298;46.050;38.164;2022-11-11T13:38:34;10.52;70.88
75685;HTU21D;64298;46.050;38.164;2022-11-11T13:41:31;10.48;70.92
75685;HTU21D;64298;46.050;38.164;2022-11-11T13:45:23;10.40;70.81
75685;HTU21D;64298;46.050;38.164;2022-11-11T13:47:44;10.36;71.09
75685;HTU21D;64298;46.050;38.164;2022-11-11T13:50:34;10.36;71.19
75685;HTU21D;64298;46.050;38.164;2022-11-11T13:53:29;10.36;71.24
75685;HTU21D;64298;46.050;38.164;2022-11-11T13:56:43;10.37;71.31
75685;HTU21D;64298;46.050;38.164;2022-11-11T13:59:33;10.39;71.32
75685;HTU21D;64298;46.050;38.164;2022-11-11T14:07:55;10.38;71.45
75685;HTU21D;64298;46.050;38.164;2022-11-11T14:10:52;10.38;71.53
75685;HTU21D;64298;46.050;38.164;2022-11-11T14:13:38;10.39;71.48
75685;HTU21D;64298;46.050;38.164;2022-11-11T14:22:31;10.33;71.77
75685;HTU21D;64298;46.050;38.164;2022-11-11T14:25:25;10.34;71.77
75685;HTU21D;64298;46.050;38.164;2022-11-11T14:28:25;10.31;71.75
75685;HTU21D;64298;46.050;38.164;2022-11-11T14:37:03;10.23;71.90
75685;HTU21D;64298;46.050;38.164;2022-11-11T14:39:53;10.20;71.86
75685;HTU21D;64298;46.050;38.164;2022-11-11T14:48:51;10.15;72.05
75685;HTU21D;64298;46.050;38.164;2022-11-11T14:51:37;10.15;72.03
75685;HTU21D;64298;46.050;38.164;2022-11-11T14:54:34;10.07;72.06
75685;HTU21D;64298;46.050;38.164;2022-11-11T14:57:24;10.00;72.19
75685;HTU21D;64298;46.050;38.164;2022-11-11T15:00:21;10.00;72.27
75685;HTU21D;64298;46.050;38.164;2022-11-11T15:03:08;9.99;72.29
75685;HTU21D;64298;46.050;38.164;2022-11-11T15:06:00;9.99;72.35
75685;HTU21D;64298;46.050;38.164;2022-11-11T15:09:00;9.99;72.27
75685;HTU21D;64298;46.050;38.164;2022-11-11T15:12:11;10.00;72.34
75685;HTU21D;64298;46.050;38.164;2022-11-11T15:15:21;9.99;72.32
75685;HTU21D;64298;46.050;38.164;2022-11-11T15:21:18;9.96;72.41
75685;HTU21D;64298;46.050;38.164;2022-11-11T15:27:21;9.94;72.43
75685;HTU21D;64298;46.050;38.164;2022-11-11T15:30:14;9.96;72.44
75685;HTU21D;64298;46.050;38.164;2022-11-11T15:33:14;9.94;72.45
75685;HTU21D;64298;46.050;38.164;2022-11-11T15:39:14;9.94;72.48
75685;HTU21D;64298;46.050;38.164;2022-11-11T15:42:01;9.93;72.46
75685;HTU21D;64298;46.050;38.164;2022-11-11T15:44:46;9.93;72.48
75685;HTU21D;64298;46.050;38.164;2022-11-11T15:47:34;9.92;72.49
75685;HTU21D;64298;46.050;38.164;2022-11-11T15:53:11;9.92;72.41
75685;HTU21D;64298;46.050;38.164;2022-11-11T15:55:57;9.92;72.49
75685;HTU21D;64298;46.050;38.164;2022-11-11T15:58:44;9.93;72.47
75685;HTU21D;64298;46.050;38.164;2022-11-11T16:01:28;9.94;72.53
75685;HTU21D;64298;46.050;38.164;2022-11-11T16:04:19;9.93;72.54
75685;HTU21D;64298;46.050;38.164;2022-11-11T16:07:04;9.94;72.51
75685;HTU21D;64298;46.050;38.164;2022-11-11T16:09:49;9.93;72.48
75685;HTU21D;64298;46.050;38.164;2022-11-11T16:12:50;9.92;72.51
75685;HTU21D;64298;46.050;38.164;2022-11-11T16:15:46;9.89;72.56
75685;HTU21D;64298;46.050;38.164;2022-11-11T16:18:32;9.89;72.61
75685;HTU21D;64298;46.050;38.164;2022-11-11T16:21:25;9.85;72.65
75685;HTU21D;64298;46.050;38.164;2022-11-11T16:24:31;9.84;72.73
75685;HTU21D;64298;46.050;38.164;2022-11-11T16:27:23;9.85;72.74
75685;HTU21D;64298;46.050;38.164;2022-11-11T16:36:10;9.83;72.83
75685;HTU21D;64298;46.050;38.164;2022-11-11T16:38:55;9.83;72.83
75685;HTU21D;64298;46.050;38.164;2022-11-11T16:41:56;9.83;72.86
75685;HTU21D;64298;46.050;38.164;2022-11-11T16:44:49;9.82;72.89
75685;HTU21D;64298;46.050;38.164;2022-11-11T16:47:39;9.82;72.84
75685;HTU21D;64298;46.050;38.164;2022-11-11T16:50:27;9.82;72.89
75685;HTU21D;64298;46.050;38.164;2022-11-11T16:53:28;9.82;72.93
75685;HTU21D;64298;46.050;38.164;2022-11-11T16:56:21;9.81;72.87
75685;HTU21D;64298;46.050;38.164;2022-11-11T16:59:15;9.79;72.89
75685;HTU21D;64298;46.050;38.164;2022-11-11T17:02:01;9.77;72.95
75685;HTU21D;64298;46.050;38.164;2022-11-11T17:04:56;9.77;73.02
75685;HTU21D;64298;46.050;38.164;2022-11-11T17:07:41;9.75;72.98
75685;HTU21D;64298;46.050;38.164;2022-11-11T17:10:27;9.69;73.01
75685;HTU21D;64298;46.050;38.164;2022-11-11T17:13:12;9.66;73.08
75685;HTU21D;64298;46.050;38.164;2022-11-11T17:15:59;9.65;73.15
75685;HTU21D;64298;46.050;38.164;2022-11-11T17:18:47;9.64;73.18
75685;HTU21D;64298;46.050;38.164;2022-11-11T17:21:34;9.64;73.16
75685;HTU21D;64298;46.050;38.164;2022-11-11T17:24:18;9.62;73.15
75685;HTU21D;64298;46.050;38.164;2022-11-11T17:27:03;9.63;73.25
75685;HTU21D;64298;46.050;38.164;2022-11-11T17:29:47;9.63;73.28
75685;HTU21D;64298;46.050;38.164;2022-11-11T17:32:32;9.61;73.30
75685;HTU21D;64298;46.050;38.164;2022-11-11T17:35:16;9.60;73.35
75685;HTU21D;64298;46.050;38.164;2022-11-11T17:38:01;9.56;73.36
75685;HTU21D;64298;46.050;38.164;2022-11-11T17:40:46;9.53;73.41
75685;HTU21D;64298;46.050;38.164;2022-11-11T17:43:31;9.52;73.47
75685;HTU21D;64298;46.050;38.164;2022-11-11T17:46:15;9.54;73.40
75685;HTU21D;64298;46.050;38.164;2022-11-11T17:48:59;9.52;73.34
75685;HTU21D;64298;46.050;38.164;2022-11-11T17:51:44;9.53;73.32
75685;HTU21D;64298;46.050;38.164;2022-11-11T17:54:28;9.51;73.13
75685;HTU21D;64298;46.050;38.164;2022-11-11T17:57:13;9.49;73.16
75685;HTU21D;64298;46.050;38.164;2022-11-11T17:59:58;9.47;73.06
75685;HTU21D;64298;46.050;38.164;2022-11-11T18:02:42;9.48;73.03
75685;HTU21D;64298;46.050;38.164;2022-11-11T18:05:26;9.47;72.99
75685;HTU21D;64298;46.050;38.164;2022-11-11T18:08:11;9.46;72.94
75685;HTU21D;64298;46.050;38.164;2022-11-11T18:11:00;9.47;72.90
75685;HTU21D;64298;46.050;38.164;2022-11-11T18:13:45;9.47;72.87
75685;HTU21D;64298;46.050;38.164;2022-11-11T18:16:29;9.47;72.92
75685;HTU21D;64298;46.050;38.164;2022-11-11T18:19:14;9.49;72.92
75685;HTU21D;64298;46.050;38.164;2022-11-11T18:21:58;9.51;72.91
75685;HTU21D;64298;46.050;38.164;2022-11-11T18:24:43;9.51;72.87
75685;HTU21D;64298;46.050;38.164;2022-11-11T18:27:27;9.51;72.77
75685;HTU21D;64298;46.050;38.164;2022-11-11T18:30:12;9.50;72.79
75685;HTU21D;64298;46.050;38.164;2022-11-11T18:32:56;9.48;72.74
75685;HTU21D;64298;46.050;38.164;2022-11-11T18:35:41;9.50;72.83
75685;HTU21D;64298;46.050;38.164;2022-11-11T18:38:28;9.50;72.86
75685;HTU21D;64298;46.050;38.164;2022-11-11T18:41:22;9.49;72.83
75685;HTU21D;64298;46.050;38.164;2022-11-11T18:44:07;9.48;72.77
75685;HTU21D;64298;46.050;38.164;2022-11-11T18:46:52;9.47;72.86
75685;HTU21D;64298;46.050;38.164;2022-11-11T18:49:37;9.48;72.87
75685;HTU21D;64298;46.050;38.164;2022-11-11T18:52:22;9.49;72.89
75685;HTU21D;64298;46.050;38.164;2022-11-11T18:55:06;9.50;72.90
75685;HTU21D;64298;46.050;38.164;2022-11-11T18:57:51;9.50;72.83
75685;HTU21D;64298;46.050;38.164;2022-11-11T19:00:35;9.50;72.91
75685;HTU21D;64298;46.050;38.164;2022-11-11T19:03:20;9.50;72.94
75685;HTU21D;64298;46.050;38.164;2022-11-11T19:06:06;9.50;72.97
75685;HTU21D;64298;46.050;38.164;2022-11-11T19:08:56;9.52;73.02
75685;HTU21D;64298;46.050;38.164;2022-11-11T19:11:45;9.52;73.00
75685;HTU21D;64298;46.050;38.164;2022-11-11T19:14:30;9.51;73.02
75685;HTU21D;64298;46.050;38.164;2022-11-11T19:17:14;9.51;73.07
75685;HTU21D;64298;46.050;38.164;2022-11-11T19:19:59;9.52;73.11
75685;HTU21D;64298;46.050;38.164;2022-11-11T19:22:43;9.52;73.11
75685;HTU21D;64298;46.050;38.164;2022-11-11T19:25:30;9.50;73.11